sensor_id;sensor_type;location;lat;lon;timestamp;pressure;altitude;pressure_sealevel;temperature;humidity
44044;BME280;29709;52.396;16.796;2023-01-26T00:01:46;102517.01;;;3.46;83.01
44044;BME280;29709;52.396;16.796;2023-01-26T00:04:49;102510.98;;;3.40;83.53
44044;BME280;29709;52.396;16.796;2023-01-26T00:07:52;102516.34;;;3.41;83.02
44044;BME280;29709;52.396;16.796;2023-01-26T00:10:56;102514.66;;;3.39;82.94
44044;BME280;29709;52.396;16.796;2023-01-26T00:13:59;102505.81;;;3.35;83.46
44044;BME280;29709;52.396;16.796;2023-01-26T00:17:03;102510.37;;;3.35;83.62
44044;BME280;29709;52.396;16.796;2023-01-26T00:20:07;102512.13;;;3.36;82.99
44044;BME280;29709;52.396;16.796;2023-01-26T00:23:36;102510.59;;;3.30;82.97
44044;BME280;29709;52.396;16.796;2023-01-26T00:26:39;102513.39;;;3.29;82.99
44044;BME280;29709;52.396;16.796;2023-01-26T00:29:42;102510.67;;;3.29;83.60
44044;BME280;29709;52.396;16.796;2023-01-26T00:32:45;102508.61;;;3.34;84.08
44044;BME280;29709;52.396;16.796;2023-01-26T00:35:54;102499.23;;;3.39;84.18
44044;BME280;29709;52.396;16.796;2023-01-26T00:38:57;102498.84;;;3.47;83.67
44044;BME280;29709;52.396;16.796;2023-01-26T00:42:03;102487.87;;;3.48;83.54
44044;BME280;29709;52.396;16.796;2023-01-26T00:45:11;102489.65;;;3.50;83.64
44044;BME280;29709;52.396;16.796;2023-01-26T00:48:40;102494.29;;;3.47;84.09
44044;BME280;29709;52.396;16.796;2023-01-26T00:51:44;102485.88;;;3.52;84.06
44044;BME280;29709;52.396;16.796;2023-01-26T00:54:47;102479.32;;;3.56;83.53
44044;BME280;29709;52.396;16.796;2023-01-26T00:57:50;102492.04;;;3.56;83.45
44044;BME280;29709;52.396;16.796;2023-01-26T01:00:53;102496.42;;;3.58;83.55
44044;BME280;29709;52.396;16.796;2023-01-26T01:03:56;102487.93;;;3.64;83.17
44044;BME280;29709;52.396;16.796;2023-01-26T01:07:00;102475.94;;;3.68;83.21
44044;BME280;29709;52.396;16.796;2023-01-26T01:10:03;102480.23;;;3.72;83.11
44044;BME280;29709;52.396;16.796;2023-01-26T01:13:07;102478.56;;;3.70;82.67
44044;BME280;29709;52.396;16.796;2023-01-26T01:16:12;102476.17;;;3.64;82.74
44044;BME280;29709;52.396;16.796;2023-01-26T01:19:43;102479.32;;;3.56;83.30
44044;BME280;29709;52.396;16.796;2023-01-26T01:22:46;102466.53;;;3.58;83.45
44044;BME280;29709;52.396;16.796;2023-01-26T01:25:56;102468.10;;;3.62;83.35
44044;BME280;29709;52.396;16.796;2023-01-26T01:28:59;102457.88;;;3.67;83.22
44044;BME280;29709;52.396;16.796;2023-01-26T01:32:03;102458.84;;;3.66;82.46
44044;BME280;29709;52.396;16.796;2023-01-26T01:35:06;102462.76;;;3.61;83.07
44044;BME280;29709;52.396;16.796;2023-01-26T01:38:10;102461.27;;;3.55;82.68
44044;BME280;29709;52.396;16.796;2023-01-26T01:41:17;102455.73;;;3.57;83.46
44044;BME280;29709;52.396;16.796;2023-01-26T01:48:09;102454.52;;;3.62;83.22
44044;BME280;29709;52.396;16.796;2023-01-26T01:54:35;102432.45;;;3.68;82.39
44044;BME280;29709;52.396;16.796;2023-01-26T01:58:06;102432.24;;;3.56;82.86
44044;BME280;29709;52.396;16.796;2023-01-26T02:01:10;102431.36;;;3.55;83.00
44044;BME280;29709;52.396;16.796;2023-01-26T02:04:14;102426.63;;;3.59;82.59
44044;BME280;29709;52.396;16.796;2023-01-26T02:07:17;102410.40;;;3.57;83.30
44044;BME280;29709;52.396;16.796;2023-01-26T02:10:22;102412.06;;;3.60;82.83
44044;BME280;29709;52.396;16.796;2023-01-26T02:13:27;102403.53;;;3.50;82.40
44044;BME280;29709;52.396;16.796;2023-01-26T02:16:33;102406.84;;;3.39;83.15
44044;BME280;29709;52.396;16.796;2023-01-26T02:26:35;102393.36;;;3.54;83.28
44044;BME280;29709;52.396;16.796;2023-01-26T02:29:38;102383.03;;;3.60;82.75
44044;BME280;29709;52.396;16.796;2023-01-26T02:32:41;102388.30;;;3.63;82.88
44044;BME280;29709;52.396;16.796;2023-01-26T02:35:44;102377.18;;;3.68;82.60
44044;BME280;29709;52.396;16.796;2023-01-26T02:38:54;102379.34;;;3.61;82.25
44044;BME280;29709;52.396;16.796;2023-01-26T02:42:00;102375.85;;;3.59;82.92
44044;BME280;29709;52.396;16.796;2023-01-26T02:45:42;102371.46;;;3.57;82.79
44044;BME280;29709;52.396;16.796;2023-01-26T02:48:46;102375.05;;;3.57;83.06
44044;BME280;29709;52.396;16.796;2023-01-26T02:52:01;102368.38;;;3.63;82.85
44044;BME280;29709;52.396;16.796;2023-01-26T02:55:04;102362.85;;;3.64;82.85
44044;BME280;29709;52.396;16.796;2023-01-26T02:58:20;102367.60;;;3.61;82.76
44044;BME280;29709;52.396;16.796;2023-01-26T03:01:23;102354.79;;;3.63;82.67
44044;BME280;29709;52.396;16.796;2023-01-26T03:04:52;102363.45;;;3.54;82.82
44044;BME280;29709;52.396;16.796;2023-01-26T03:07:55;102354.60;;;3.50;82.92
44044;BME280;29709;52.396;16.796;2023-01-26T03:10:58;102363.63;;;3.51;83.24
44044;BME280;29709;52.396;16.796;2023-01-26T03:14:02;102358.56;;;3.60;82.78
44044;BME280;29709;52.396;16.796;2023-01-26T03:17:05;102354.88;;;3.61;82.65
44044;BME280;29709;52.396;16.796;2023-01-26T03:20:09;102351.38;;;3.59;82.59
44044;BME280;29709;52.396;16.796;2023-01-26T03:23:24;102356.02;;;3.57;82.67
44044;BME280;29709;52.396;16.796;2023-01-26T03:26:40;102350.84;;;3.53;83.45
44044;BME280;29709;52.396;16.796;2023-01-26T03:29:55;102348.10;;;3.53;83.33
44044;BME280;29709;52.396;16.796;2023-01-26T03:33:24;102341.46;;;3.58;83.06
44044;BME280;29709;52.396;16.796;2023-01-26T03:36:28;102345.94;;;3.59;82.92
44044;BME280;29709;52.396;16.796;2023-01-26T03:39:31;102334.28;;;3.57;83.28
44044;BME280;29709;52.396;16.796;2023-01-26T03:42:46;102324.19;;;3.59;83.20
44044;BME280;29709;52.396;16.796;2023-01-26T03:46:05;102329.34;;;3.64;82.68
44044;BME280;29709;52.396;16.796;2023-01-26T03:49:20;102318.12;;;3.54;82.94
44044;BME280;29709;52.396;16.796;2023-01-26T03:52:35;102323.31;;;3.59;83.23
44044;BME280;29709;52.396;16.796;2023-01-26T03:55:50;102321.48;;;3.59;82.59
44044;BME280;29709;52.396;16.796;2023-01-26T03:59:06;102311.74;;;3.55;83.07
44044;BME280;29709;52.396;16.796;2023-01-26T04:02:35;102310.78;;;3.56;83.24
44044;BME280;29709;52.396;16.796;2023-01-26T04:05:50;102312.34;;;3.60;83.32
44044;BME280;29709;52.396;16.796;2023-01-26T04:09:05;102313.12;;;3.62;83.24
44044;BME280;29709;52.396;16.796;2023-01-26T04:12:08;102311.05;;;3.67;83.00
44044;BME280;29709;52.396;16.796;2023-01-26T04:15:13;102308.92;;;3.72;82.85
44044;BME280;29709;52.396;16.796;2023-01-26T04:18:28;102310.53;;;3.76;82.62
44044;BME280;29709;52.396;16.796;2023-01-26T04:21:43;102311.92;;;3.68;82.32
44044;BME280;29709;52.396;16.796;2023-01-26T04:25:15;102308.07;;;3.56;82.77
44044;BME280;29709;52.396;16.796;2023-01-26T04:28:19;102302.62;;;3.56;83.31
44044;BME280;29709;52.396;16.796;2023-01-26T04:31:22;102299.53;;;3.62;83.10
44044;BME280;29709;52.396;16.796;2023-01-26T04:34:25;102297.70;;;3.63;82.91
44044;BME280;29709;52.396;16.796;2023-01-26T04:37:28;102295.94;;;3.62;83.43
44044;BME280;29709;52.396;16.796;2023-01-26T04:40:31;102279.39;;;3.66;82.97
44044;BME280;29709;52.396;16.796;2023-01-26T04:43:35;102279.89;;;3.73;82.69
44044;BME280;29709;52.396;16.796;2023-01-26T04:46:38;102279.74;;;3.76;82.65
44044;BME280;29709;52.396;16.796;2023-01-26T04:49:41;102271.64;;;3.74;82.73
44044;BME280;29709;52.396;16.796;2023-01-26T04:52:45;102267.98;;;3.75;82.35
44044;BME280;29709;52.396;16.796;2023-01-26T04:59:28;102268.77;;;3.78;82.12
44044;BME280;29709;52.396;16.796;2023-01-26T05:02:31;102269.02;;;3.73;82.37
44044;BME280;29709;52.396;16.796;2023-01-26T05:05:36;102281.04;;;3.69;82.26
44044;BME280;29709;52.396;16.796;2023-01-26T05:08:39;102289.30;;;3.67;82.25
44044;BME280;29709;52.396;16.796;2023-01-26T05:11:42;102279.20;;;3.69;82.50
44044;BME280;29709;52.396;16.796;2023-01-26T05:14:45;102271.84;;;3.71;82.30
44044;BME280;29709;52.396;16.796;2023-01-26T05:17:49;102284.22;;;3.77;82.17
44044;BME280;29709;52.396;16.796;2023-01-26T05:20:52;102278.67;;;3.79;82.04
44044;BME280;29709;52.396;16.796;2023-01-26T05:24:20;102271.64;;;3.74;82.18
44044;BME280;29709;52.396;16.796;2023-01-26T05:27:24;102280.17;;;3.68;82.30
44044;BME280;29709;52.396;16.796;2023-01-26T05:30:27;102273.23;;;3.63;82.59
44044;BME280;29709;52.396;16.796;2023-01-26T05:33:30;102262.26;;;3.64;82.37
44044;BME280;29709;52.396;16.796;2023-01-26T05:36:34;102257.63;;;3.66;82.33
44044;BME280;29709;52.396;16.796;2023-01-26T05:39:37;102267.88;;;3.61;81.80
44044;BME280;29709;52.396;16.796;2023-01-26T05:42:41;102268.49;;;3.51;82.45
44044;BME280;29709;52.396;16.796;2023-01-26T05:45:45;102264.12;;;3.48;82.17
44044;BME280;29709;52.396;16.796;2023-01-26T05:48:51;102272.45;;;3.45;83.05
44044;BME280;29709;52.396;16.796;2023-01-26T05:52:22;102265.17;;;3.45;82.62
44044;BME280;29709;52.396;16.796;2023-01-26T05:55:25;102256.15;;;3.45;83.04
44044;BME280;29709;52.396;16.796;2023-01-26T05:58:29;102248.59;;;3.50;82.81
44044;BME280;29709;52.396;16.796;2023-01-26T06:01:32;102252.00;;;3.54;82.49
44044;BME280;29709;52.396;16.796;2023-01-26T06:04:35;102255.95;;;3.48;82.39
44044;BME280;29709;52.396;16.796;2023-01-26T06:07:38;102251.59;;;3.45;82.86
44044;BME280;29709;52.396;16.796;2023-01-26T06:10:42;102258.68;;;3.48;82.67
44044;BME280;29709;52.396;16.796;2023-01-26T06:13:45;102261.40;;;3.48;83.00
44044;BME280;29709;52.396;16.796;2023-01-26T06:16:50;102261.03;;;3.54;83.10
44044;BME280;29709;52.396;16.796;2023-01-26T06:19:56;102260.45;;;3.65;82.67
44044;BME280;29709;52.396;16.796;2023-01-26T06:23:26;102260.36;;;3.66;82.29
44044;BME280;29709;52.396;16.796;2023-01-26T06:26:29;102264.20;;;3.62;82.10
44044;BME280;29709;52.396;16.796;2023-01-26T06:29:33;102261.48;;;3.62;82.24
44044;BME280;29709;52.396;16.796;2023-01-26T06:32:36;102262.98;;;3.68;81.74
44044;BME280;29709;52.396;16.796;2023-01-26T06:35:40;102260.76;;;3.74;81.18
44044;BME280;29709;52.396;16.796;2023-01-26T06:38:48;102259.45;;;3.82;81.29
44044;BME280;29709;52.396;16.796;2023-01-26T06:41:52;102258.67;;;3.80;81.54
44044;BME280;29709;52.396;16.796;2023-01-26T06:44:55;102254.20;;;3.79;80.92
44044;BME280;29709;52.396;16.796;2023-01-26T06:48:00;102247.89;;;3.78;81.33
44044;BME280;29709;52.396;16.796;2023-01-26T06:54:49;102254.39;;;3.75;81.62
44044;BME280;29709;52.396;16.796;2023-01-26T06:57:53;102260.76;;;3.74;81.79
44044;BME280;29709;52.396;16.796;2023-01-26T07:00:56;102258.86;;;3.76;81.66
44044;BME280;29709;52.396;16.796;2023-01-26T07:03:59;102262.08;;;3.83;81.63
44044;BME280;29709;52.396;16.796;2023-01-26T07:07:02;102266.55;;;3.84;80.93
44044;BME280;29709;52.396;16.796;2023-01-26T07:10:06;102265.52;;;3.87;80.68
44044;BME280;29709;52.396;16.796;2023-01-26T07:13:36;102273.67;;;3.71;80.83
44044;BME280;29709;52.396;16.796;2023-01-26T07:16:40;102262.70;;;3.72;81.32
44044;BME280;29709;52.396;16.796;2023-01-26T07:19:43;102266.05;;;3.78;80.90
44044;BME280;29709;52.396;16.796;2023-01-26T07:22:47;102259.64;;;3.79;80.80
44044;BME280;29709;52.396;16.796;2023-01-26T07:25:51;102273.23;;;3.79;81.29
44044;BME280;29709;52.396;16.796;2023-01-26T07:28:54;102260.62;;;3.78;81.42
44044;BME280;29709;52.396;16.796;2023-01-26T07:31:58;102263.48;;;3.74;81.98
44044;BME280;29709;52.396;16.796;2023-01-26T07:35:01;102257.98;;;3.76;82.00
44044;BME280;29709;52.396;16.796;2023-01-26T07:38:04;102254.89;;;3.82;81.50
44044;BME280;29709;52.396;16.796;2023-01-26T07:41:10;102264.55;;;3.88;81.17
44044;BME280;29709;52.396;16.796;2023-01-26T07:44:39;102269.21;;;3.86;80.77
44044;BME280;29709;52.396;16.796;2023-01-26T07:47:43;102264.27;;;3.92;80.49
44044;BME280;29709;52.396;16.796;2023-01-26T07:50:46;102266.98;;;3.92;80.54
44044;BME280;29709;52.396;16.796;2023-01-26T07:53:51;102266.39;;;3.87;80.63
44044;BME280;29709;52.396;16.796;2023-01-26T07:56:54;102272.81;;;3.86;80.58
44044;BME280;29709;52.396;16.796;2023-01-26T07:59:57;102273.67;;;3.87;80.42
44044;BME280;29709;52.396;16.796;2023-01-26T08:03:00;102275.59;;;3.85;80.05
44044;BME280;29709;52.396;16.796;2023-01-26T08:06:04;102278.48;;;3.82;80.43
44044;BME280;29709;52.396;16.796;2023-01-26T08:09:08;102265.77;;;3.82;80.39
44044;BME280;29709;52.396;16.796;2023-01-26T08:12:11;102273.05;;;3.82;80.27
44044;BME280;29709;52.396;16.796;2023-01-26T08:15:40;102265.08;;;3.79;80.56
44044;BME280;29709;52.396;16.796;2023-01-26T08:18:45;102266.14;;;3.76;80.83
44044;BME280;29709;52.396;16.796;2023-01-26T08:21:48;102256.14;;;3.76;80.76
44044;BME280;29709;52.396;16.796;2023-01-26T08:24:52;102255.33;;;3.74;80.44
44044;BME280;29709;52.396;16.796;2023-01-26T08:27:55;102254.20;;;3.63;80.33
44044;BME280;29709;52.396;16.796;2023-01-26T08:31:08;102256.04;;;3.62;80.74
44044;BME280;29709;52.396;16.796;2023-01-26T08:34:14;102252.36;;;3.63;80.86
44044;BME280;29709;52.396;16.796;2023-01-26T08:37:18;102249.57;;;3.65;80.84
44044;BME280;29709;52.396;16.796;2023-01-26T08:40:50;102243.32;;;3.63;81.25
44044;BME280;29709;52.396;16.796;2023-01-26T08:43:56;102240.60;;;3.63;81.24
44044;BME280;29709;52.396;16.796;2023-01-26T08:47:01;102248.67;;;3.64;80.88
44044;BME280;29709;52.396;16.796;2023-01-26T08:50:04;102242.30;;;3.65;81.58
44044;BME280;29709;52.396;16.796;2023-01-26T08:53:08;102252.11;;;3.68;81.13
44044;BME280;29709;52.396;16.796;2023-01-26T08:56:11;102251.83;;;3.72;81.45
44044;BME280;29709;52.396;16.796;2023-01-26T08:59:15;102261.64;;;3.75;81.17
44044;BME280;29709;52.396;16.796;2023-01-26T09:02:18;102256.14;;;3.76;81.46
44044;BME280;29709;52.396;16.796;2023-01-26T09:05:21;102260.42;;;3.81;81.22
44044;BME280;29709;52.396;16.796;2023-01-26T09:08:50;102257.02;;;3.77;81.53
44044;BME280;29709;52.396;16.796;2023-01-26T09:11:56;102260.70;;;3.76;81.61
44044;BME280;29709;52.396;16.796;2023-01-26T09:14:59;102260.70;;;3.76;81.32
44044;BME280;29709;52.396;16.796;2023-01-26T09:18:03;102274.21;;;3.78;81.42
44044;BME280;29709;52.396;16.796;2023-01-26T09:21:08;102265.27;;;3.75;81.14
44044;BME280;29709;52.396;16.796;2023-01-26T09:24:11;102260.17;;;3.69;81.21
44044;BME280;29709;52.396;16.796;2023-01-26T09:27:14;102256.67;;;3.67;81.32
44044;BME280;29709;52.396;16.796;2023-01-26T09:30:18;102253.77;;;3.70;81.14
44044;BME280;29709;52.396;16.796;2023-01-26T09:33:21;102260.52;;;3.79;81.14
44044;BME280;29709;52.396;16.796;2023-01-26T09:36:51;102274.21;;;3.78;81.14
44044;BME280;29709;52.396;16.796;2023-01-26T09:39:54;102262.18;;;3.82;81.28
44044;BME280;29709;52.396;16.796;2023-01-26T09:43:04;102259.11;;;3.88;80.58
44044;BME280;29709;52.396;16.796;2023-01-26T09:53:21;102262.18;;;3.97;80.20
44044;BME280;29709;52.396;16.796;2023-01-26T09:56:29;102255.66;;;4.00;79.84
44044;BME280;29709;52.396;16.796;2023-01-26T09:59:40;102255.66;;;4.00;79.75
44044;BME280;29709;52.396;16.796;2023-01-26T10:06:29;102257.51;;;3.99;79.93
44044;BME280;29709;52.396;16.796;2023-01-26T10:09:39;102248.28;;;4.02;80.02
44044;BME280;29709;52.396;16.796;2023-01-26T10:12:43;102251.35;;;3.96;79.97
44044;BME280;29709;52.396;16.796;2023-01-26T10:15:53;102248.73;;;3.94;79.99
44044;BME280;29709;52.396;16.796;2023-01-26T10:19:05;102248.28;;;4.02;80.49
44044;BME280;29709;52.396;16.796;2023-01-26T10:22:21;102244.33;;;4.08;80.21
44044;BME280;29709;52.396;16.796;2023-01-26T10:25:53;102242.40;;;4.10;79.75
44044;BME280;29709;52.396;16.796;2023-01-26T10:28:59;102235.46;;;4.04;79.05
44044;BME280;29709;52.396;16.796;2023-01-26T10:32:02;102238.09;;;4.05;79.37
44044;BME280;29709;52.396;16.796;2023-01-26T10:35:15;102237.15;;;4.07;79.82
44044;BME280;29709;52.396;16.796;2023-01-26T10:38:25;102228.07;;;4.06;79.69
44044;BME280;29709;52.396;16.796;2023-01-26T10:41:29;102224.77;;;4.01;79.24
44044;BME280;29709;52.396;16.796;2023-01-26T10:44:34;102216.08;;;3.94;79.40
44044;BME280;29709;52.396;16.796;2023-01-26T10:47:39;102220.94;;;3.89;79.47
44044;BME280;29709;52.396;16.796;2023-01-26T10:51:14;102218.57;;;3.83;79.72
44044;BME280;29709;52.396;16.796;2023-01-26T10:54:23;102216.62;;;3.85;80.04
44044;BME280;29709;52.396;16.796;2023-01-26T10:57:29;102206.55;;;3.87;79.91
44044;BME280;29709;52.396;16.796;2023-01-26T11:00:34;102202.09;;;3.86;79.76
44044;BME280;29709;52.396;16.796;2023-01-26T11:03:39;102200.23;;;3.87;80.04
44044;BME280;29709;52.396;16.796;2023-01-26T11:06:42;102194.71;;;3.88;79.77
44044;BME280;29709;52.396;16.796;2023-01-26T11:09:45;102189.52;;;3.84;79.86
44044;BME280;29709;52.396;16.796;2023-01-26T11:13:19;102197.34;;;3.90;79.91
44044;BME280;29709;52.396;16.796;2023-01-26T11:16:24;102188.11;;;3.92;79.78
44044;BME280;29709;52.396;16.796;2023-01-26T11:26:11;102183.07;;;3.70;79.90
44044;BME280;29709;52.396;16.796;2023-01-26T11:45:43;102162.00;;;3.74;80.18
44044;BME280;29709;52.396;16.796;2023-01-26T11:52:23;102157.73;;;3.70;80.17
44044;BME280;29709;52.396;16.796;2023-01-26T12:02:02;102135.45;;;3.63;80.51
44044;BME280;29709;52.396;16.796;2023-01-26T12:05:14;102132.47;;;3.68;80.16
44044;BME280;29709;52.396;16.796;2023-01-26T12:08:25;102139.91;;;3.64;80.08
44044;BME280;29709;52.396;16.796;2023-01-26T12:11:38;102133.24;;;3.70;80.09
44044;BME280;29709;52.396;16.796;2023-01-26T12:18:05;102124.03;;;3.72;79.93
44044;BME280;29709;52.396;16.796;2023-01-26T12:21:10;102115.00;;;3.72;79.91
44044;BME280;29709;52.396;16.796;2023-01-26T12:24:23;102110.11;;;3.63;79.87
44044;BME280;29709;52.396;16.796;2023-01-26T12:27:39;102103.11;;;3.59;80.23
44044;BME280;29709;52.396;16.796;2023-01-26T12:33:56;102110.82;;;3.66;80.17
44044;BME280;29709;52.396;16.796;2023-01-26T12:47:18;102120.16;;;3.46;80.44
44044;BME280;29709;52.396;16.796;2023-01-26T12:50:35;102119.18;;;3.47;80.22
44044;BME280;29709;52.396;16.796;2023-01-26T12:53:51;102108.41;;;3.46;80.79
44044;BME280;29709;52.396;16.796;2023-01-26T12:56:58;102115.05;;;3.56;80.42
44044;BME280;29709;52.396;16.796;2023-01-26T13:03:21;102104.72;;;3.47;79.87
44044;BME280;29709;52.396;16.796;2023-01-26T13:06:27;102113.99;;;3.59;79.80
44044;BME280;29709;52.396;16.796;2023-01-26T13:16:31;102102.89;;;3.78;79.37
44044;BME280;29709;52.396;16.796;2023-01-26T13:22:50;102100.75;;;3.83;78.77
44044;BME280;29709;52.396;16.796;2023-01-26T13:35:39;102108.25;;;3.93;78.59
44044;BME280;29709;52.396;16.796;2023-01-26T13:39:21;102112.05;;;3.91;78.87
44044;BME280;29709;52.396;16.796;2023-01-26T13:42:34;102102.72;;;3.95;78.92
44044;BME280;29709;52.396;16.796;2023-01-26T13:51:53;102109.52;;;3.88;78.43
44044;BME280;29709;52.396;16.796;2023-01-26T13:54:56;102106.80;;;3.88;78.70
44044;BME280;29709;52.396;16.796;2023-01-26T13:58:11;102105.93;;;3.87;78.39
44044;BME280;29709;52.396;16.796;2023-01-26T14:01:15;102104.25;;;3.85;78.54
44044;BME280;29709;52.396;16.796;2023-01-26T14:04:29;102095.22;;;3.84;79.00
44044;BME280;29709;52.396;16.796;2023-01-26T14:07:40;102102.13;;;3.90;79.19
44044;BME280;29709;52.396;16.796;2023-01-26T14:10:44;102101.17;;;3.91;78.71
44044;BME280;29709;52.396;16.796;2023-01-26T14:14:27;102109.69;;;3.85;78.85
44044;BME280;29709;52.396;16.796;2023-01-26T14:17:35;102107.16;;;3.82;79.11
44044;BME280;29709;52.396;16.796;2023-01-26T14:20:39;102109.30;;;3.76;78.89
44044;BME280;29709;52.396;16.796;2023-01-26T14:23:42;102105.20;;;3.69;78.76
44044;BME280;29709;52.396;16.796;2023-01-26T14:26:46;102101.08;;;3.62;79.06
44044;BME280;29709;52.396;16.796;2023-01-26T14:29:49;102104.77;;;3.61;79.02
44044;BME280;29709;52.396;16.796;2023-01-26T14:36:35;102109.52;;;3.58;79.38
44044;BME280;29709;52.396;16.796;2023-01-26T14:39:43;102119.52;;;3.57;78.92
44044;BME280;29709;52.396;16.796;2023-01-26T14:42:51;102119.61;;;3.56;79.14
44044;BME280;29709;52.396;16.796;2023-01-26T14:46:00;102122.98;;;3.45;79.12
44044;BME280;29709;52.396;16.796;2023-01-26T14:49:15;102121.76;;;3.35;79.32
44044;BME280;29709;52.396;16.796;2023-01-26T14:52:24;102116.91;;;3.40;79.54
44044;BME280;29709;52.396;16.796;2023-01-26T14:55:33;102114.72;;;3.46;79.14
44044;BME280;29709;52.396;16.796;2023-01-26T14:58:38;102126.19;;;3.52;79.31
44044;BME280;29709;52.396;16.796;2023-01-26T15:01:44;102121.27;;;3.58;79.52
44044;BME280;29709;52.396;16.796;2023-01-26T15:05:17;102116.96;;;3.54;78.84
44044;BME280;29709;52.396;16.796;2023-01-26T15:08:23;102118.23;;;3.48;79.15
44044;BME280;29709;52.396;16.796;2023-01-26T15:11:34;102114.44;;;3.51;79.08
44044;BME280;29709;52.396;16.796;2023-01-26T15:14:54;102112.59;;;3.52;78.74
44044;BME280;29709;52.396;16.796;2023-01-26T15:21:19;102108.13;;;3.51;78.81
44044;BME280;29709;52.396;16.796;2023-01-26T15:24:24;102103.23;;;3.41;78.40
44044;BME280;29709;52.396;16.796;2023-01-26T15:27:57;102117.10;;;3.37;78.76
44044;BME280;29709;52.396;16.796;2023-01-26T15:31:01;102102.30;;;3.27;78.64
44044;BME280;29709;52.396;16.796;2023-01-26T15:34:25;102101.67;;;3.22;78.80
44044;BME280;29709;52.396;16.796;2023-01-26T15:40:29;102105.02;;;3.27;79.11
44044;BME280;29709;52.396;16.796;2023-01-26T15:43:32;102098.45;;;3.15;79.17
44044;BME280;29709;52.396;16.796;2023-01-26T15:47:02;102110.91;;;3.03;79.31
44044;BME280;29709;52.396;16.796;2023-01-26T15:50:06;102107.03;;;2.92;79.58
44044;BME280;29709;52.396;16.796;2023-01-26T15:53:20;102109.41;;;2.82;79.89
44044;BME280;29709;52.396;16.796;2023-01-26T15:56:23;102106.07;;;2.77;80.66
44044;BME280;29709;52.396;16.796;2023-01-26T15:59:27;102105.88;;;2.80;80.50
44044;BME280;29709;52.396;16.796;2023-01-26T16:02:30;102110.53;;;2.78;80.32
44044;BME280;29709;52.396;16.796;2023-01-26T16:05:34;102114.48;;;2.72;80.66
44044;BME280;29709;52.396;16.796;2023-01-26T16:08:37;102110.71;;;2.75;80.91
44044;BME280;29709;52.396;16.796;2023-01-26T16:11:46;102111.50;;;2.77;80.69
44044;BME280;29709;52.396;16.796;2023-01-26T16:18:31;102124.90;;;2.80;81.15
44044;BME280;29709;52.396;16.796;2023-01-26T16:21:36;102117.62;;;2.80;80.63
44044;BME280;29709;52.396;16.796;2023-01-26T16:24:41;102113.62;;;2.72;80.76
44044;BME280;29709;52.396;16.796;2023-01-26T16:27:44;102113.76;;;2.69;80.83
44044;BME280;29709;52.396;16.796;2023-01-26T16:30:48;102119.05;;;2.72;81.66
44044;BME280;29709;52.396;16.796;2023-01-26T16:33:53;102114.81;;;2.66;81.22
44044;BME280;29709;52.396;16.796;2023-01-26T16:37:24;102129.35;;;2.65;81.30
44044;BME280;29709;52.396;16.796;2023-01-26T16:40:27;102118.32;;;2.68;81.02
44044;BME280;29709;52.396;16.796;2023-01-26T16:43:30;102110.53;;;2.78;81.24
44044;BME280;29709;52.396;16.796;2023-01-26T16:46:33;102098.56;;;2.82;81.06
44044;BME280;29709;52.396;16.796;2023-01-26T16:49:37;102103.38;;;2.93;80.73
44044;BME280;29709;52.396;16.796;2023-01-26T16:52:40;102103.10;;;2.97;80.53
44044;BME280;29709;52.396;16.796;2023-01-26T16:55:43;102104.76;;;3.00;80.39
44044;BME280;29709;52.396;16.796;2023-01-26T16:58:47;102104.66;;;3.01;80.08
44044;BME280;29709;52.396;16.796;2023-01-26T17:01:50;102106.07;;;3.08;80.28
44044;BME280;29709;52.396;16.796;2023-01-26T17:04:54;102100.30;;;3.14;80.26
44044;BME280;29709;52.396;16.796;2023-01-26T17:08:23;102110.54;;;3.09;80.31
44044;BME280;29709;52.396;16.796;2023-01-26T17:11:28;102110.63;;;3.08;80.39
44044;BME280;29709;52.396;16.796;2023-01-26T17:14:31;102124.13;;;3.09;80.63
44044;BME280;29709;52.396;16.796;2023-01-26T17:17:34;102126.33;;;3.03;80.65
44044;BME280;29709;52.396;16.796;2023-01-26T17:20:38;102128.41;;;2.98;80.91
44044;BME280;29709;52.396;16.796;2023-01-26T17:23:43;102126.67;;;2.97;80.92
44044;BME280;29709;52.396;16.796;2023-01-26T17:26:49;102129.56;;;2.94;80.73
44044;BME280;29709;52.396;16.796;2023-01-26T17:29:53;102129.21;;;2.84;80.78
44044;BME280;29709;52.396;16.796;2023-01-26T17:32:59;102132.61;;;2.72;81.05
44044;BME280;29709;52.396;16.796;2023-01-26T17:36:29;102137.31;;;2.68;81.44
44044;BME280;29709;52.396;16.796;2023-01-26T17:39:32;102130.83;;;2.71;81.58
44044;BME280;29709;52.396;16.796;2023-01-26T17:42:36;102134.36;;;2.73;81.33
44044;BME280;29709;52.396;16.796;2023-01-26T17:45:39;102132.16;;;2.79;81.14
44044;BME280;29709;52.396;16.796;2023-01-26T17:48:42;102131.74;;;2.87;81.37
44044;BME280;29709;52.396;16.796;2023-01-26T17:51:46;102138.74;;;2.91;81.20
44044;BME280;29709;52.396;16.796;2023-01-26T17:54:49;102133.95;;;2.96;80.94
44044;BME280;29709;52.396;16.796;2023-01-26T17:57:52;102135.42;;;2.86;80.52
44044;BME280;29709;52.396;16.796;2023-01-26T18:00:56;102141.27;;;2.78;80.98
44044;BME280;29709;52.396;16.796;2023-01-26T18:03:59;102137.68;;;2.78;81.25
44044;BME280;29709;52.396;16.796;2023-01-26T18:07:29;102146.47;;;2.83;81.52
44044;BME280;29709;52.396;16.796;2023-01-26T18:10:32;102138.83;;;2.89;80.98
44044;BME280;29709;52.396;16.796;2023-01-26T18:13:37;102140.53;;;2.92;81.00
44044;BME280;29709;52.396;16.796;2023-01-26T18:16:41;102134.02;;;2.95;81.28
44044;BME280;29709;52.396;16.796;2023-01-26T18:19:44;102136.91;;;3.07;81.31
44044;BME280;29709;52.396;16.796;2023-01-26T18:22:47;102136.49;;;3.15;80.80
44044;BME280;29709;52.396;16.796;2023-01-26T18:25:50;102143.68;;;3.16;80.45
44044;BME280;29709;52.396;16.796;2023-01-26T18:28:54;102153.30;;;3.06;80.23